Time;durP1;ratioP1;P1;durP2;ratioP2;P2;SDS_P1;SDS_P2;PMS_P1;PMS_P2;Temp;Humidity;BMP_temperature;BMP_pressure;BME280_temperature;BME280_humidity;BME280_pressure;Samples;Min_cycle;Max_cycle;Signal;HPM_P1;HPM_P2
2023/11/11 00:00:43;;;;;;;2.38;0.40;;;6.30;99.90;;;;;;5048722;28;20033;-68
2023/11/11 00:03:09;;;;;;;0.75;0.60;;;6.30;99.90;;;;;;5045084;28;20021;-67
2023/11/11 00:05:34;;;;;;;0.70;0.47;;;6.30;99.90;;;;;;5050954;28;20478;-67
2023/11/11 00:08:01;;;;;;;0.70;0.40;;;6.30;99.90;;;;;;5053985;28;20017;-67
2023/11/11 00:10:27;;;;;;;1.08;0.57;;;6.30;99.90;;;;;;5035558;28;20551;-67
2023/11/11 00:12:53;;;;;;;1.20;0.45;;;6.30;99.90;;;;;;5028852;28;20037;-68
2023/11/11 00:18:40;;;;;;;0.80;0.40;;;6.30;99.90;;;;;;5031510;28;20060;-68
2023/11/11 00:21:06;;;;;;;1.08;0.65;;;6.20;99.90;;;;;;5047720;28;20577;-67
2023/11/11 00:23:31;;;;;;;1.75;0.80;;;6.10;99.90;;;;;;5050863;28;20490;-66
2023/11/11 00:25:57;;;;;;;3.47;1.33;;;6.10;99.90;;;;;;5051943;28;20104;-67
2023/11/11 00:28:22;;;;;;;3.63;2.08;;;6.20;99.90;;;;;;5048352;28;20025;-67
2023/11/11 00:30:49;;;;;;;5.28;2.65;;;6.20;99.90;;;;;;5051604;28;20025;-67
2023/11/11 00:33:15;;;;;;;5.03;3.17;;;6.20;99.90;;;;;;5053428;28;20033;-66
2023/11/11 00:35:41;;;;;;;5.30;3.28;;;6.20;99.90;;;;;;5049315;28;20553;-67
2023/11/11 00:38:09;;;;;;;5.35;3.17;;;6.20;99.90;;;;;;5047349;28;20036;-68
2023/11/11 00:40:36;;;;;;;7.55;3.65;;;6.20;99.90;;;;;;5051942;28;20398;-69
2023/11/11 00:43:02;;;;;;;6.07;2.78;;;6.10;99.90;;;;;;5049510;28;20029;-68
2023/11/11 00:45:27;;;;;;;4.47;2.50;;;6.20;99.90;;;;;;5048030;28;20067;-68
2023/11/11 00:47:53;;;;;;;3.95;2.53;;;6.20;99.90;;;;;;5050464;28;20109;-67
2023/11/11 00:50:19;;;;;;;5.57;3.20;;;6.20;99.90;;;;;;5050518;28;20025;-67
2023/11/11 00:52:44;;;;;;;4.68;3.17;;;6.10;99.90;;;;;;5049672;28;20036;-67
2023/11/11 00:55:10;;;;;;;6.45;3.60;;;6.20;99.90;;;;;;5030755;28;20025;-67
2023/11/11 00:57:37;;;;;;;4.85;3.38;;;6.20;99.90;;;;;;5048696;28;20037;-67
2023/11/11 01:00:03;;;;;;;6.57;3.60;;;6.20;99.90;;;;;;5047533;28;20032;-69
2023/11/11 01:02:29;;;;;;;8.35;4.05;;;6.20;99.90;;;;;;5048458;28;20055;-68
2023/11/11 01:04:55;;;;;;;7.30;4.30;;;6.30;99.90;;;;;;5049153;28;20029;-68
2023/11/11 01:07:20;;;;;;;8.75;5.50;;;6.30;99.90;;;;;;5052470;28;20029;-68
2023/11/11 01:09:46;;;;;;;11.63;6.22;;;6.20;99.90;;;;;;5033362;28;20498;-68
2023/11/11 01:12:12;;;;;;;13.23;5.25;;;6.30;99.90;;;;;;5048723;28;20036;-68
2023/11/11 01:14:38;;;;;;;7.13;4.10;;;6.30;99.90;;;;;;5048736;28;20029;-68
2023/11/11 01:17:03;;;;;;;9.88;4.15;;;6.30;99.90;;;;;;5052524;28;20036;-68
2023/11/11 01:19:29;;;;;;;6.10;3.50;;;6.30;99.90;;;;;;5008822;28;20050;-68
2023/11/11 01:21:55;;;;;;;6.85;4.15;;;6.30;99.90;;;;;;5008537;28;21335;-68
2023/11/11 01:24:20;;;;;;;6.97;4.10;;;6.40;99.90;;;;;;5033245;28;20017;-68
2023/11/11 01:26:46;;;;;;;5.75;3.58;;;6.30;99.90;;;;;;5021772;28;20414;-67
2023/11/11 01:29:12;;;;;;;8.90;3.72;;;6.30;99.90;;;;;;5019491;28;20397;-67
2023/11/11 01:31:38;;;;;;;10.70;6.10;;;6.30;99.90;;;;;;5024766;28;20021;-68
2023/11/11 01:34:04;;;;;;;12.13;5.80;;;6.30;99.90;;;;;;5021410;28;20502;-68
2023/11/11 01:36:30;;;;;;;12.85;7.68;;;6.30;99.90;;;;;;5021211;28;20105;-68
2023/11/11 01:38:56;;;;;;;16.02;9.38;;;6.40;99.90;;;;;;5025675;28;20108;-67
2023/11/11 01:41:21;;;;;;;17.15;10.38;;;6.40;99.90;;;;;;5023270;28;20033;-68
2023/11/11 01:43:47;;;;;;;19.00;10.90;;;6.40;99.90;;;;;;5020176;28;20455;-68
2023/11/11 01:46:13;;;;;;;19.80;10.98;;;6.40;99.90;;;;;;5022197;28;20079;-68
2023/11/11 01:48:40;;;;;;;15.85;10.00;;;6.40;99.90;;;;;;5007992;28;20025;-67
2023/11/11 01:51:06;;;;;;;24.75;10.77;;;6.40;99.90;;;;;;5021978;28;20049;-68
2023/11/11 01:53:34;;;;;;;21.25;11.38;;;6.40;99.90;;;;;;5027483;28;20033;-67
2023/11/11 01:56:01;;;;;;;20.00;11.30;;;6.50;99.90;;;;;;4983682;28;20038;-68
2023/11/11 01:58:27;;;;;;;22.63;11.68;;;6.50;99.90;;;;;;5020874;28;20041;-66
2023/11/11 02:00:54;;;;;;;17.38;10.20;;;6.50;99.90;;;;;;5019690;28;20474;-66
2023/11/11 02:03:20;;;;;;;20.42;11.00;;;6.50;99.90;;;;;;5025672;28;20099;-67
2023/11/11 02:05:47;;;;;;;21.33;10.95;;;6.50;99.90;;;;;;5019027;28;20061;-66
2023/11/11 02:08:15;;;;;;;21.35;11.63;;;6.60;99.90;;;;;;5017575;28;20018;-66
2023/11/11 02:10:41;;;;;;;20.50;12.57;;;6.60;99.90;;;;;;5020809;28;20387;-67
2023/11/11 02:13:07;;;;;;;20.45;12.40;;;6.60;99.90;;;;;;5019118;28;20611;-68
2023/11/11 02:15:33;;;;;;;22.52;11.98;;;6.60;99.90;;;;;;5017342;28;20075;-67
2023/11/11 02:18:00;;;;;;;23.50;11.75;;;6.70;99.90;;;;;;5015646;28;20029;-67
2023/11/11 02:20:26;;;;;;;22.58;12.60;;;6.70;99.90;;;;;;5012113;28;20111;-67
2023/11/11 02:22:52;;;;;;;18.38;11.30;;;6.70;99.90;;;;;;5021073;28;20017;-67
2023/11/11 02:25:19;;;;;;;28.95;14.30;;;6.70;99.90;;;;;;5027530;28;20036;-67
2023/11/11 02:27:46;;;;;;;27.17;13.45;;;6.70;99.90;;;;;;5023540;28;20430;-67
2023/11/11 02:30:13;;;;;;;25.25;13.75;;;6.80;99.90;;;;;;5010655;28;20018;-67
2023/11/11 02:32:39;;;;;;;25.45;13.88;;;6.80;99.90;;;;;;5024149;28;20780;-68
2023/11/11 02:35:05;;;;;;;26.40;14.90;;;6.80;99.90;;;;;;5027710;28;20036;-67
2023/11/11 02:37:31;;;;;;;23.85;14.75;;;6.80;99.90;;;;;;5026495;28;20040;-67
2023/11/11 02:39:57;;;;;;;30.63;15.40;;;6.80;99.90;;;;;;5027861;28;20116;-67
2023/11/11 02:42:22;;;;;;;29.95;14.65;;;6.90;99.90;;;;;;5028612;28;20475;-67
2023/11/11 02:44:48;;;;;;;29.27;15.27;;;6.90;99.90;;;;;;5023478;28;20124;-67
2023/11/11 02:47:14;;;;;;;29.95;16.95;;;6.90;99.90;;;;;;5027927;28;20017;-67
2023/11/11 02:49:40;;;;;;;31.67;15.65;;;6.90;99.90;;;;;;5023927;28;20032;-67
2023/11/11 02:52:05;;;;;;;31.98;15.68;;;6.90;99.90;;;;;;5026823;28;20025;-67
2023/11/11 02:54:31;;;;;;;28.70;15.93;;;6.90;99.90;;;;;;5027240;28;20199;-67
2023/11/11 02:56:57;;;;;;;34.60;17.58;;;6.90;99.90;;;;;;5026901;28;20037;-67
2023/11/11 02:59:23;;;;;;;34.90;17.02;;;7.00;99.90;;;;;;5021009;28;20029;-67
2023/11/11 03:01:50;;;;;;;33.78;19.15;;;7.00;99.90;;;;;;5022472;28;20022;-67
2023/11/11 03:04:16;;;;;;;31.52;16.85;;;7.00;99.90;;;;;;5007415;28;20041;-67
2023/11/11 03:06:42;;;;;;;32.33;17.13;;;7.00;99.90;;;;;;5028424;28;20051;-67
2023/11/11 03:09:09;;;;;;;32.00;16.70;;;7.00;99.90;;;;;;5025834;28;20033;-67
2023/11/11 03:11:35;;;;;;;33.75;16.77;;;7.00;99.90;;;;;;5029015;28;20022;-66
2023/11/11 03:14:01;;;;;;;27.33;16.30;;;7.00;99.90;;;;;;5025485;28;20033;-67
2023/11/11 03:16:37;;;;;;;27.98;14.82;;;7.00;99.90;;;;;;5027587;28;20029;-66
2023/11/11 03:19:04;;;;;;;23.50;14.40;;;7.00;99.90;;;;;;5016769;28;20399;-68
2023/11/11 03:21:30;;;;;;;25.70;13.18;;;7.00;99.90;;;;;;5029185;28;20505;-68
2023/11/11 03:23:56;;;;;;;27.85;13.23;;;7.00;99.90;;;;;;5030198;28;20041;-68
2023/11/11 03:26:23;;;;;;;23.02;12.35;;;7.00;99.90;;;;;;5028867;28;20026;-64
2023/11/11 03:28:49;;;;;;;26.80;14.05;;;6.90;99.90;;;;;;5027065;28;20103;-67
2023/11/11 03:31:17;;;;;;;21.63;11.98;;;6.90;99.90;;;;;;5030924;28;20033;-67
2023/11/11 03:33:43;;;;;;;23.55;11.75;;;6.90;99.90;;;;;;5032246;28;20187;-67
2023/11/11 03:36:09;;;;;;;28.63;12.60;;;6.90;99.90;;;;;;5032658;28;20028;-67
2023/11/11 03:38:34;;;;;;;28.55;13.43;;;6.80;99.90;;;;;;5029975;28;20028;-67
2023/11/11 03:41:00;;;;;;;26.88;13.45;;;6.90;99.90;;;;;;5025566;28;20097;-68
2023/11/11 03:43:25;;;;;;;23.40;12.68;;;6.90;99.90;;;;;;5035369;28;20055;-67
2023/11/11 03:45:51;;;;;;;24.10;12.43;;;6.90;99.90;;;;;;5024904;28;20021;-67
2023/11/11 03:48:17;;;;;;;20.65;12.05;;;6.90;99.90;;;;;;5036492;28;20071;-67
2023/11/11 03:50:42;;;;;;;26.77;13.88;;;6.90;99.90;;;;;;5011644;28;20051;-67
2023/11/11 03:53:08;;;;;;;21.38;12.00;;;6.90;99.90;;;;;;5025854;28;20476;-68
2023/11/11 03:55:33;;;;;;;22.77;12.20;;;6.90;99.90;;;;;;5015196;28;20471;-67
2023/11/11 03:57:59;;;;;;;30.77;13.88;;;6.90;99.90;;;;;;5030996;28;20105;-67
2023/11/11 04:00:25;;;;;;;27.38;12.50;;;7.00;99.90;;;;;;5012037;28;20033;-67
2023/11/11 04:02:50;;;;;;;28.35;13.55;;;6.90;99.90;;;;;;5028986;28;20052;-68
2023/11/11 04:05:16;;;;;;;31.60;12.07;;;6.90;99.90;;;;;;5037310;28;20275;-68
2023/11/11 04:07:42;;;;;;;24.25;12.93;;;7.00;99.90;;;;;;5016110;28;20029;-67
2023/11/11 04:10:08;;;;;;;22.70;10.02;;;7.00;99.90;;;;;;5040618;28;20033;-68
2023/11/11 04:12:33;;;;;;;25.52;10.70;;;6.90;99.90;;;;;;5037930;28;20048;-67
2023/11/11 04:14:59;;;;;;;21.25;10.48;;;6.90;99.90;;;;;;5033873;28;20033;-67
2023/11/11 04:17:25;;;;;;;23.75;9.77;;;6.90;99.90;;;;;;5030871;28;20021;-68
2023/11/11 04:19:51;;;;;;;21.17;10.13;;;6.90;99.90;;;;;;5008820;28;20487;-68
2023/11/11 04:22:16;;;;;;;17.00;9.93;;;6.90;99.90;;;;;;5034588;28;20035;-68
2023/11/11 04:24:42;;;;;;;16.38;9.52;;;6.90;99.90;;;;;;5031300;28;20061;-68
2023/11/11 04:27:08;;;;;;;17.70;8.77;;;6.90;99.90;;;;;;5037345;28;20021;-68
2023/11/11 04:29:34;;;;;;;15.93;8.40;;;6.90;99.90;;;;;;5030488;28;20032;-67
2023/11/11 04:32:00;;;;;;;12.88;5.93;;;6.80;99.90;;;;;;5033350;28;20032;-68
2023/11/11 04:34:29;;;;;;;11.23;4.70;;;6.70;99.90;;;;;;5034956;28;20029;-66
2023/11/11 04:36:59;;;;;;;10.50;5.40;;;6.70;99.90;;;;;;5017020;28;20137;-67
2023/11/11 04:39:25;;;;;;;10.82;5.95;;;6.70;99.90;;;;;;5042251;28;20033;-67
2023/11/11 04:41:51;;;;;;;10.73;5.85;;;6.70;99.90;;;;;;5017396;28;20471;-68
2023/11/11 04:44:17;;;;;;;15.85;6.70;;;6.60;99.90;;;;;;5034967;28;20029;-66
2023/11/11 04:46:42;;;;;;;13.32;6.00;;;6.60;99.90;;;;;;5031408;28;20029;-67
2023/11/11 04:49:09;;;;;;;18.50;6.82;;;6.70;99.90;;;;;;5036454;28;20067;-66
2023/11/11 04:51:35;;;;;;;18.17;6.13;;;6.70;99.90;;;;;;5031377;28;20029;-67
2023/11/11 04:54:01;;;;;;;12.80;6.30;;;6.70;99.90;;;;;;5032255;28;20036;-68
2023/11/11 04:56:26;;;;;;;11.65;6.40;;;6.70;99.90;;;;;;5031682;28;20049;-66
2023/11/11 04:58:52;;;;;;;9.00;4.93;;;6.70;99.90;;;;;;5029070;28;20021;-67
2023/11/11 05:01:19;;;;;;;12.88;4.93;;;6.70;99.90;;;;;;5037770;28;20021;-67
2023/11/11 05:03:45;;;;;;;14.20;6.30;;;6.70;99.90;;;;;;5032943;28;20029;-66
2023/11/11 05:06:11;;;;;;;11.00;5.57;;;6.70;99.90;;;;;;5033621;28;20029;-67
2023/11/11 05:08:37;;;;;;;12.77;5.85;;;6.70;99.90;;;;;;5034047;28;20418;-67
2023/11/11 05:11:02;;;;;;;11.00;4.88;;;6.80;99.90;;;;;;5032380;28;20068;-67
2023/11/11 05:13:31;;;;;;;9.88;3.85;;;6.70;99.90;;;;;;5034877;28;20033;-67
2023/11/11 05:16:03;;;;;;;18.45;5.20;;;6.70;99.90;;;;;;5024115;28;20063;-67
2023/11/11 05:18:29;;;;;;;10.52;5.07;;;6.70;99.90;;;;;;5033512;28;20021;-67
2023/11/11 05:20:54;;;;;;;10.45;4.45;;;6.70;99.90;;;;;;5030250;28;20044;-67
2023/11/11 05:23:20;;;;;;;11.20;3.97;;;6.70;99.90;;;;;;5037481;28;20041;-67
2023/11/11 05:25:46;;;;;;;13.65;4.30;;;6.70;99.90;;;;;;5033757;28;20021;-68
2023/11/11 05:28:12;;;;;;;11.00;3.83;;;6.70;99.90;;;;;;5046680;28;20036;-69
2023/11/11 05:30:38;;;;;;;11.27;3.78;;;6.70;99.90;;;;;;5044838;28;20039;-67
2023/11/11 05:33:05;;;;;;;5.07;3.30;;;6.70;99.90;;;;;;5056819;28;20029;-66
2023/11/11 05:35:31;;;;;;;11.75;3.33;;;6.70;99.90;;;;;;5046296;28;20089;-67
2023/11/11 05:37:56;;;;;;;9.85;3.38;;;6.70;99.90;;;;;;5050674;28;20588;-67
2023/11/11 05:40:22;;;;;;;11.63;3.08;;;6.70;99.90;;;;;;5049361;28;20040;-67
2023/11/11 05:42:47;;;;;;;12.40;3.13;;;6.60;99.90;;;;;;5048805;28;20106;-67
2023/11/11 05:45:17;;;;;;;7.88;3.95;;;6.70;99.90;;;;;;5044286;28;20071;-67
2023/11/11 05:47:46;;;;;;;8.70;3.85;;;6.70;99.90;;;;;;5049605;28;20032;-67
2023/11/11 05:50:12;;;;;;;13.55;3.80;;;6.70;99.90;;;;;;5058803;28;20111;-67
2023/11/11 05:52:38;;;;;;;14.15;3.92;;;6.60;99.90;;;;;;5049478;28;20116;-67
2023/11/11 05:55:08;;;;;;;5.40;2.67;;;6.60;99.90;;;;;;5044655;28;20035;-67
2023/11/11 05:57:35;;;;;;;4.82;2.80;;;6.70;99.90;;;;;;5050804;28;20036;-67
2023/11/11 06:00:03;;;;;;;4.63;2.67;;;6.60;99.90;;;;;;5046597;28;20029;-68
2023/11/11 06:02:29;;;;;;;6.90;2.72;;;6.60;99.90;;;;;;5045811;28;20013;-68
2023/11/11 06:04:55;;;;;;;6.70;2.70;;;6.60;99.90;;;;;;5050473;28;20112;-68
2023/11/11 06:07:20;;;;;;;7.90;3.30;;;6.60;99.90;;;;;;5047601;28;20033;-67
2023/11/11 06:09:46;;;;;;;4.93;2.80;;;6.60;99.90;;;;;;5054404;28;20522;-67
2023/11/11 06:12:13;;;;;;;6.72;3.47;;;6.60;99.90;;;;;;5052203;28;20036;-67
2023/11/11 06:14:38;;;;;;;9.65;3.28;;;6.50;99.90;;;;;;5052788;28;20063;-67
2023/11/11 06:17:04;;;;;;;8.38;3.28;;;6.50;99.90;;;;;;5050214;28;20025;-67
2023/11/11 06:19:30;;;;;;;7.57;3.65;;;6.50;99.90;;;;;;5051063;28;20040;-66
2023/11/11 06:21:55;;;;;;;6.15;3.42;;;6.50;99.90;;;;;;5053912;28;20036;-67
2023/11/11 06:24:21;;;;;;;8.40;3.55;;;6.50;99.90;;;;;;5033807;28;20060;-66
2023/11/11 06:26:47;;;;;;;11.65;4.60;;;6.50;99.90;;;;;;5053602;28;20021;-68
2023/11/11 06:29:12;;;;;;;7.75;4.10;;;6.40;99.90;;;;;;5049527;28;20020;-67
2023/11/11 06:31:38;;;;;;;13.10;4.38;;;6.50;99.90;;;;;;5046497;28;20048;-68
2023/11/11 06:34:04;;;;;;;9.13;4.30;;;6.50;99.90;;;;;;5047427;28;20028;-67
2023/11/11 06:36:30;;;;;;;13.68;5.40;;;6.50;99.90;;;;;;5053323;28;20390;-67
2023/11/11 06:38:56;;;;;;;10.23;4.45;;;6.50;99.90;;;;;;5056863;28;20025;-67
2023/11/11 06:41:22;;;;;;;11.02;5.55;;;6.50;99.90;;;;;;5051762;28;20021;-67
2023/11/11 06:43:48;;;;;;;11.52;5.50;;;6.50;99.90;;;;;;5057288;28;20025;-67
2023/11/11 06:46:13;;;;;;;14.27;5.63;;;6.50;99.90;;;;;;5054928;28;20032;-68
2023/11/11 06:48:39;;;;;;;10.73;5.63;;;6.40;99.90;;;;;;5047308;28;20031;-67
2023/11/11 06:51:05;;;;;;;13.98;6.50;;;6.40;99.90;;;;;;5056765;28;20040;-67
2023/11/11 06:53:31;;;;;;;16.40;6.07;;;6.40;99.90;;;;;;5042256;28;20555;-67
2023/11/11 06:55:57;;;;;;;16.95;5.53;;;6.40;99.90;;;;;;5039956;28;20041;-68
2023/11/11 06:58:23;;;;;;;7.50;5.13;;;6.30;99.90;;;;;;5054627;28;20032;-67
2023/11/11 07:00:48;;;;;;;18.15;4.85;;;6.30;99.90;;;;;;5032736;28;20115;-67
2023/11/11 07:03:14;;;;;;;8.32;5.38;;;6.30;99.90;;;;;;5050788;28;20715;-67
2023/11/11 07:05:40;;;;;;;10.48;5.18;;;6.30;99.90;;;;;;5060810;28;20451;-67
2023/11/11 07:08:05;;;;;;;10.90;5.88;;;6.30;99.90;;;;;;5050660;28;20028;-67
2023/11/11 07:10:34;;;;;;;14.13;5.47;;;6.30;99.90;;;;;;5061330;28;20031;-68
2023/11/11 07:13:03;;;;;;;9.65;4.88;;;6.30;99.90;;;;;;5049552;28;20505;-67
2023/11/11 07:15:29;;;;;;;9.95;4.50;;;6.20;99.90;;;;;;5057813;28;20033;-67
2023/11/11 07:17:55;;;;;;;9.35;4.72;;;6.20;99.90;;;;;;5045827;28;20037;-67
2023/11/11 07:20:21;;;;;;;14.48;5.78;;;6.20;99.90;;;;;;5055823;28;20478;-67
2023/11/11 07:22:55;;;;;;;14.35;5.82;;;6.20;99.90;;;;;;5051789;28;20025;-66
2023/11/11 07:25:23;;;;;;;13.48;6.75;;;6.20;99.90;;;;;;5058682;28;20020;-67
2023/11/11 07:27:49;;;;;;;16.60;5.05;;;6.20;99.90;;;;;;5039491;28;20045;-67
2023/11/11 07:30:14;;;;;;;10.80;5.45;;;6.20;99.90;;;;;;5055029;28;20158;-66
2023/11/11 07:32:40;;;;;;;12.65;6.18;;;6.20;99.90;;;;;;5050227;28;20480;-67
2023/11/11 07:35:12;;;;;;;15.10;6.18;;;6.20;99.90;;;;;;5049614;28;20082;-68
2023/11/11 07:37:39;;;;;;;16.02;6.32;;;6.30;99.90;;;;;;5031025;28;20407;-68
2023/11/11 07:40:05;;;;;;;18.20;7.43;;;6.30;99.90;;;;;;5053101;28;20470;-68
2023/11/11 07:42:31;;;;;;;13.52;6.22;;;6.30;99.90;;;;;;5059982;28;20033;-68
2023/11/11 07:44:58;;;;;;;15.57;8.60;;;6.30;99.90;;;;;;5053766;28;20082;-67
2023/11/11 07:47:24;;;;;;;20.48;9.48;;;6.30;99.90;;;;;;5044896;28;20025;-67
2023/11/11 07:49:50;;;;;;;11.43;6.80;;;6.40;99.90;;;;;;5054438;28;20543;-67
2023/11/11 07:52:16;;;;;;;13.18;8.10;;;6.40;99.90;;;;;;5058534;28;20029;-67
2023/11/11 07:54:41;;;;;;;16.40;6.70;;;6.50;99.90;;;;;;5051973;28;20132;-67
2023/11/11 07:57:07;;;;;;;15.85;9.82;;;6.50;99.90;;;;;;5053139;28;20056;-67
2023/11/11 07:59:37;;;;;;;9.25;5.80;;;6.60;99.90;;;;;;5038927;28;20529;-68
2023/11/11 08:02:02;;;;;;;17.25;9.43;;;6.60;99.90;;;;;;5059954;28;20037;-68
2023/11/11 08:04:28;;;;;;;16.50;7.75;;;6.60;99.90;;;;;;5056951;28;20032;-67
2023/11/11 08:06:53;;;;;;;48.35;23.50;;;6.60;99.90;;;;;;5049194;28;20025;-68
2023/11/11 08:09:20;;;;;;;26.27;12.35;;;6.60;99.90;;;;;;5056694;28;20398;-68
2023/11/11 08:11:46;;;;;;;17.52;8.60;;;6.60;99.90;;;;;;5055038;28;20044;-67
2023/11/11 08:14:12;;;;;;;14.23;6.53;;;6.50;99.90;;;;;;5046521;28;20802;-68
2023/11/11 08:16:38;;;;;;;18.50;7.88;;;6.60;99.90;;;;;;5048775;28;20061;-67
2023/11/11 08:19:04;;;;;;;17.83;9.07;;;6.60;99.90;;;;;;5055652;28;20025;-67
2023/11/11 08:21:32;;;;;;;19.48;6.43;;;6.70;99.90;;;;;;5037936;28;20048;-67
2023/11/11 08:24:05;;;;;;;18.17;8.50;;;6.70;99.90;;;;;;5043334;28;20115;-67
2023/11/11 08:26:31;;;;;;;10.25;6.13;;;6.70;99.90;;;;;;5047893;28;20029;-68
2023/11/11 08:28:58;;;;;;;26.10;9.32;;;6.80;99.90;;;;;;5021851;28;20092;-67
2023/11/11 08:31:24;;;;;;;19.05;7.70;;;6.90;99.90;;;;;;5041584;28;20029;-67
2023/11/11 08:33:50;;;;;;;14.43;6.85;;;6.90;99.90;;;;;;5022510;28;20017;-67
2023/11/11 08:36:17;;;;;;;22.02;9.50;;;6.90;99.90;;;;;;5045864;28;20363;-67
2023/11/11 08:38:43;;;;;;;307.80;113.85;;;6.90;99.90;;;;;;5031278;28;20029;-67
2023/11/11 08:41:09;;;;;;;73.38;33.30;;;7.00;99.90;;;;;;5043209;28;20034;-67
2023/11/11 08:43:35;;;;;;;19.40;8.35;;;7.00;99.90;;;;;;5034444;28;20041;-67
2023/11/11 08:46:01;;;;;;;24.13;11.05;;;7.10;99.90;;;;;;5031429;28;20021;-68
2023/11/11 08:48:30;;;;;;;22.48;12.25;;;7.10;99.90;;;;;;5034361;28;20048;-67
2023/11/11 08:50:56;;;;;;;20.65;8.98;;;7.20;99.90;;;;;;5032017;28;20064;-68
2023/11/11 08:53:21;;;;;;;19.20;9.45;;;7.20;99.90;;;;;;5023529;28;20033;-68
2023/11/11 08:55:48;;;;;;;28.77;14.98;;;7.30;99.90;;;;;;5023739;28;20033;-67
2023/11/11 08:58:14;;;;;;;18.90;7.60;;;7.30;99.90;;;;;;5012597;28;20044;-67
2023/11/11 09:00:40;;;;;;;16.73;7.35;;;7.20;99.90;;;;;;5013556;28;20040;-67
2023/11/11 09:03:06;;;;;;;22.05;11.25;;;7.20;99.90;;;;;;5021970;28;20402;-67
2023/11/11 09:05:32;;;;;;;19.17;11.07;;;7.20;99.90;;;;;;5022766;28;20030;-67
2023/11/11 09:07:58;;;;;;;18.10;9.02;;;7.20;99.90;;;;;;5020556;28;20037;-67
2023/11/11 09:10:26;;;;;;;17.80;8.68;;;7.20;99.90;;;;;;5023215;28;20101;-68
2023/11/11 09:12:53;;;;;;;16.63;9.13;;;7.30;99.90;;;;;;5019870;28;20033;-67
2023/11/11 09:15:19;;;;;;;17.90;8.27;;;7.30;99.90;;;;;;5015819;28;20490;-68
2023/11/11 09:17:45;;;;;;;21.60;8.73;;;7.40;99.90;;;;;;5035410;28;20501;-67
2023/11/11 09:20:11;;;;;;;16.83;7.13;;;7.40;99.90;;;;;;5038169;28;20040;-67
2023/11/11 09:22:37;;;;;;;23.70;11.40;;;7.40;99.90;;;;;;5019252;28;20030;-68
2023/11/11 09:25:05;;;;;;;22.55;9.07;;;7.50;99.90;;;;;;5040326;28;20061;-68
2023/11/11 09:27:31;;;;;;;16.50;7.88;;;7.60;99.90;;;;;;5036853;28;20028;-67
2023/11/11 09:29:58;;;;;;;15.50;6.70;;;7.60;99.90;;;;;;5036123;28;20057;-68
2023/11/11 09:32:24;;;;;;;14.13;7.03;;;7.70;99.90;;;;;;5030285;28;20114;-67
2023/11/11 09:34:49;;;;;;;24.95;8.00;;;7.80;99.90;;;;;;5028863;28;20511;-67
2023/11/11 09:37:15;;;;;;;17.38;9.02;;;7.80;99.90;;;;;;5018534;28;20028;-67
2023/11/11 09:39:41;;;;;;;17.63;7.75;;;7.90;99.90;;;;;;5036324;28;20068;-68
2023/11/11 09:42:07;;;;;;;23.42;9.98;;;7.90;99.90;;;;;;5016241;28;20446;-67
2023/11/11 09:44:33;;;;;;;19.25;7.57;;;8.00;99.90;;;;;;5036069;28;20085;-67
2023/11/11 09:47:00;;;;;;;16.63;7.10;;;8.00;99.90;;;;;;5030192;28;20036;-67
2023/11/11 09:49:28;;;;;;;16.48;6.90;;;8.00;99.90;;;;;;5010032;28;20132;-68
2023/11/11 09:51:55;;;;;;;15.32;6.93;;;7.80;99.90;;;;;;5026159;28;20052;-68
2023/11/11 09:54:22;;;;;;;14.73;7.60;;;7.80;99.90;;;;;;5027518;28;20022;-68
2023/11/11 09:56:49;;;;;;;17.95;7.05;;;7.80;99.90;;;;;;5011450;28;20398;-67
2023/11/11 09:59:16;;;;;;;16.35;6.50;;;7.80;99.90;;;;;;5026024;28;20051;-67
2023/11/11 10:01:44;;;;;;;23.17;10.48;;;7.80;99.90;;;;;;5025996;28;20037;-67
2023/11/11 10:04:10;;;;;;;17.13;8.73;;;7.80;99.90;;;;;;5026502;28;20067;-67
2023/11/11 10:06:36;;;;;;;19.15;7.28;;;7.80;99.90;;;;;;5030254;28;20033;-68
2023/11/11 10:09:08;;;;;;;17.95;7.50;;;7.90;99.90;;;;;;5028533;28;20033;-67
2023/11/11 10:11:35;;;;;;;13.75;6.53;;;7.90;99.90;;;;;;5026794;28;20030;-67
2023/11/11 10:14:00;;;;;;;20.15;7.20;;;7.90;99.90;;;;;;5029068;28;20033;-67
2023/11/11 10:16:26;;;;;;;17.80;7.95;;;8.10;99.90;;;;;;5023961;28;20049;-64
2023/11/11 10:18:53;;;;;;;17.30;8.15;;;8.10;99.90;;;;;;5024324;28;21509;-67
2023/11/11 10:21:22;;;;;;;17.05;5.93;;;8.10;99.90;;;;;;5027475;28;20029;-68
2023/11/11 10:23:49;;;;;;;37.10;13.60;;;8.10;99.90;;;;;;5014505;28;20491;-66
2023/11/11 10:26:20;;;;;;;30.42;14.23;;;8.20;99.90;;;;;;5027862;28;20049;-67
2023/11/11 10:28:49;;;;;;;43.92;17.92;;;8.20;99.90;;;;;;5021792;28;20021;-67
2023/11/11 10:31:15;;;;;;;22.67;9.80;;;8.20;99.90;;;;;;5018618;28;20068;-67
2023/11/11 10:33:42;;;;;;;12.85;6.20;;;8.20;99.90;;;;;;5019159;28;20025;-67
2023/11/11 10:36:08;;;;;;;12.35;5.40;;;8.20;99.90;;;;;;5023280;28;20026;-67
2023/11/11 10:38:34;;;;;;;15.93;4.95;;;8.30;99.90;;;;;;5013062;28;20053;-67
2023/11/11 10:41:00;;;;;;;10.82;3.92;;;8.40;99.90;;;;;;5021202;28;20075;-67
2023/11/11 10:43:26;;;;;;;11.32;4.78;;;8.30;99.90;;;;;;5027708;28;20522;-69
2023/11/11 10:45:55;;;;;;;7.45;3.60;;;8.40;99.90;;;;;;5023547;28;20029;-66
2023/11/11 10:48:22;;;;;;;10.52;4.38;;;8.30;99.90;;;;;;5001402;28;20056;-66
2023/11/11 10:50:51;;;;;;;10.75;4.00;;;8.20;99.90;;;;;;5053453;28;20021;-67
2023/11/11 10:53:17;;;;;;;9.80;3.97;;;8.30;99.90;;;;;;5044608;28;20021;-69
2023/11/11 10:55:46;;;;;;;10.77;4.80;;;8.40;99.90;;;;;;5043425;28;20033;-67
2023/11/11 10:58:17;;;;;;;12.35;4.10;;;8.50;99.90;;;;;;5046159;28;20028;-68
2023/11/11 11:00:44;;;;;;;12.98;4.15;;;8.60;99.90;;;;;;5046324;28;20029;-68
2023/11/11 11:03:10;;;;;;;7.55;3.28;;;8.70;99.90;;;;;;5046353;28;20013;-67
2023/11/11 11:05:40;;;;;;;11.40;3.50;;;8.80;99.90;;;;;;5048063;28;20021;-68
2023/11/11 11:08:18;;;;;;;8.25;2.95;;;8.70;99.90;;;;;;5047573;28;20024;-67
2023/11/11 11:11:07;;;;;;;6.88;2.55;;;8.70;99.90;;;;;;5044432;28;20021;-68
2023/11/11 11:13:35;;;;;;;11.90;4.00;;;8.70;99.90;;;;;;5042940;28;20029;-67
2023/11/11 11:16:01;;;;;;;7.13;2.38;;;8.60;99.90;;;;;;5049204;28;20666;-67
2023/11/11 11:18:27;;;;;;;8.43;3.90;;;8.60;99.90;;;;;;5051607;28;20490;-65
2023/11/11 11:20:54;;;;;;;8.93;2.95;;;8.80;99.90;;;;;;5049430;28;20075;-68
2023/11/11 11:23:21;;;;;;;17.30;3.60;;;8.90;99.90;;;;;;5050214;28;20078;-68
2023/11/11 11:25:50;;;;;;;10.65;4.55;;;9.10;99.90;;;;;;5032662;28;20025;-67
2023/11/11 11:28:22;;;;;;;12.25;3.95;;;9.20;99.90;;;;;;5045105;28;20020;-67
2023/11/11 11:30:58;;;;;;;9.68;3.20;;;9.20;99.90;;;;;;5031374;28;20111;-67
2023/11/11 11:33:28;;;;;;;11.63;3.08;;;9.20;99.90;;;;;;5047627;28;20032;-67
2023/11/11 11:36:05;;;;;;;6.65;3.05;;;9.10;99.90;;;;;;5054734;28;20048;-67
2023/11/11 11:38:36;;;;;;;10.63;3.70;;;9.10;99.90;;;;;;5020691;28;20053;-67
2023/11/11 11:41:12;;;;;;;7.85;3.20;;;9.10;99.90;;;;;;5029985;28;20562;-67
2023/11/11 11:43:40;;;;;;;15.05;4.57;;;9.20;99.90;;;;;;5031818;28;20087;-67
2023/11/11 11:46:07;;;;;;;9.25;3.50;;;9.20;99.90;;;;;;5028529;28;20438;-67
2023/11/11 11:48:35;;;;;;;8.52;4.10;;;9.10;99.90;;;;;;5026729;28;20120;-67
2023/11/11 11:51:07;;;;;;;11.18;3.72;;;9.10;99.90;;;;;;5030065;28;20100;-67
2023/11/11 11:53:34;;;;;;;6.72;3.33;;;8.90;99.90;;;;;;5031496;28;20029;-67
2023/11/11 11:56:00;;;;;;;9.18;4.57;;;9.00;99.90;;;;;;5035100;28;20113;-67
2023/11/11 11:58:25;;;;;;;16.63;3.97;;;8.90;99.90;;;;;;5015239;28;20120;-67
2023/11/11 12:00:52;;;;;;;36.97;14.32;;;8.90;99.90;;;;;;5026904;28;20398;-66
2023/11/11 12:03:17;;;;;;;46.70;14.13;;;8.90;99.90;;;;;;5036309;28;20021;-67
2023/11/11 12:05:43;;;;;;;27.55;10.18;;;8.90;99.90;;;;;;5033286;28;20091;-67
2023/11/11 12:08:10;;;;;;;18.88;6.28;;;9.10;99.90;;;;;;5036472;28;20070;-67
2023/11/11 12:10:47;;;;;;;20.50;8.57;;;9.20;99.90;;;;;;5035433;28;20038;-68
2023/11/11 12:13:12;;;;;;;21.75;9.05;;;9.40;99.90;;;;;;5027721;28;20037;-67
2023/11/11 12:15:47;;;;;;;25.38;10.05;;;9.60;99.90;;;;;;5029960;28;20416;-67
2023/11/11 12:18:13;;;;;;;11.55;4.57;;;9.50;99.90;;;;;;5034524;28;20041;-67
2023/11/11 12:20:42;;;;;;;21.17;8.13;;;9.50;99.90;;;;;;5036354;28;20041;-67
2023/11/11 12:23:11;;;;;;;14.38;5.60;;;9.60;99.90;;;;;;5016686;28;20062;-67
2023/11/11 12:25:43;;;;;;;8.15;3.90;;;9.60;99.90;;;;;;5026966;28;20029;-67
2023/11/11 12:28:09;;;;;;;7.88;2.85;;;9.60;99.90;;;;;;5038003;28;20485;-67
2023/11/11 12:30:35;;;;;;;5.93;2.28;;;9.70;99.90;;;;;;5036375;28;20116;-67
2023/11/11 12:33:08;;;;;;;6.30;3.03;;;9.40;99.90;;;;;;5031448;28;20069;-68
2023/11/11 12:35:40;;;;;;;15.90;5.25;;;9.40;99.90;;;;;;5028345;28;20489;-68
2023/11/11 12:38:27;;;;;;;37.92;17.70;;;9.50;99.90;;;;;;5037662;28;20379;-67
2023/11/11 12:40:59;;;;;;;12.00;3.67;;;9.60;99.90;;;;;;5003557;28;20124;-68
2023/11/11 12:43:26;;;;;;;20.23;9.27;;;9.60;99.90;;;;;;5029008;28;20025;-68
2023/11/11 12:45:54;;;;;;;15.27;5.20;;;9.60;99.90;;;;;;5029612;28;20527;-68